Milan, Ohio
Current Conditions -  °F | °C
As of 9:39 PM on Thursday 27 Nov 2014 (Local Time) from KPCW Reporting Station
Unknown Precip Unknown Precip  
Wind Chill: 23°   Ceiling: 2900
Heat Index: 32°   Visibility: 10mi
Dew Point: 25°   Wind: 13mph
Humidity: 75%   Direction: 320°NW
Pressure: 30.27"   Gusts: NA
Location:  41.3°N, 82.61°W
Report Text: KPCW 280239Z AUTO 32011KT 10SM UP FEW014 SCT020 BKN029 00/M04 A3027 RMK
Loading
Personal Weather Stations






























Interactive Weather Map New forecast layout! Learn more

10-Day Weather Forecast

Advertisements
Track Severe Weather on mobile